Impacts TAF Board INFO
FOR SITUATIONAL AWARENESS. NOT TO BE USED FOR FLIGHT PLANNING PURPOSES.
IDs:

KDCA - Washington/National, VA, US

Issued at 0533 UTC 22 Jan 2017
Updated at 0550 UTC 22 Jan 2017
Potential Impact None Slight Moderate High
Time0507Z 22/06Z 22/07Z 22/08Z 22/09Z 22/10Z 22/11Z 22/12Z 22/13Z 22/14Z 22/15Z 22/16Z 22/17Z 22/18Z
Type OBS PRVL PRVL PRVL PRVL PRVL PRVL PRVL PRVL PRVL PRVL PRVL PRVL PRVL
VIS 5 1 1 1 1 1 1 1 1 1 5 5 5 5
CIG 4 5 5 5 3 3 3 3 3 3 5 5 5 8
Cover OVC OVC OVC OVC OVC OVC OVC OVC OVC OVC OVC OVC OVC OVC
FltCat LIFR IFR IFR IFR LIFR LIFR LIFR LIFR LIFR LIFR IFR IFR IFR IFR
WX BR -DZ BR -DZ BR -DZ BR -DZ BR -DZ BR -DZ BR -DZ BR -DZ BR -DZ BR -DZ BR -DZ BR -DZ BR -RA -DZ
WDir 50 VRB VRB VRB 70 70 70 70 70 70 60 60 60 60
WSpd 5 3 3 3 4 4 4 4 4 4 6 6 6 7
WGst -- -- -- -- -- -- -- -- -- -- -- -- -- --

Raw TAF
KDCA 220533Z 2206/2306 VRB03KT 1SM -DZ BR OVC005
  FM220900 07004KT 1SM -DZ BR BKN003 OVC005
  FM221500 06006KT 5SM -DZ BR BKN005 OVC008
  FM221800 06007KT 5SM -RADZ BKN008 OVC015
  FM222300 07010G18KT 5SM -RA BKN008 OVC015


Raw METAR
KDCA 220507Z 05005KT 5SM BR OVC004 08/08 A2976 RMK AO2 T00830083 $
KDCA 220452Z 02005KT 5SM BR OVC005 09/09 A2977 RMK AO2 SLP079 T00890089 401000083 $
KDCA 220352Z 05005KT 8SM OVC006 09/09 A2978 RMK AO2 SLP086 T00890089 $
KDCA 220334Z 03005KT 4SM BR OVC005 09/09 A2978 RMK AO2 T00940089 $
KDCA 220300Z 07004KT 5SM BR OVC004 09/09 A2980 RMK AO2 T00890089 $
KDCA 220252Z 10003KT 5SM BR OVC005 09/09 A2980 RMK AO2 SLP092 T00890089 57003 $
KDCA 220248Z 09004KT 5SM BR OVC005 09/09 A2980 RMK AO2 $

METAR Board
Radar Display
Forecast Discussion

FOR SITUATIONAL AWARENESS. NOT TO BE USED FOR FLIGHT PLANNING PURPOSES.

Page loaded:  05:50 UTC  |   09:50 PM Pacific  |   10:50 PM Mountain  |   11:50 PM Central  |   12:50 AM Eastern

 

ADVISORIES

FORECASTS

FORECASTS

OBSERVATIONS

USER TOOLS

ABOUT US